Time;durP1;ratioP1;P1;durP2;ratioP2;P2;SDS_P1;SDS_P2;PMS_P1;PMS_P2;Temp;Humidity;BMP_temperature;BMP_pressure;BME280_temperature;BME280_humidity;BME280_pressure;Samples;Min_cycle;Max_cycle;Signal;HPM_P1;HPM_P2
2023/07/11 00:01:23;;;;;;;3.60;2.10;;;;;;;15.33;100.00;99564.02;105466;1256;60459;-62
2023/07/11 00:03:51;;;;;;;6.60;1.90;;;;;;;15.33;100.00;99569.10;105122;1257;59538;-62
2023/07/11 00:06:19;;;;;;;3.20;1.80;;;;;;;15.31;100.00;99573.11;105552;1255;73129;-63
2023/07/11 00:08:47;;;;;;;5.80;2.10;;;;;;;15.29;100.00;99570.75;105433;1253;66930;-62
2023/07/11 00:11:16;;;;;;;4.20;1.90;;;;;;;15.28;100.00;99571.89;105771;1257;71468;-63
2023/07/11 00:13:44;;;;;;;3.40;1.90;;;;;;;15.27;100.00;99573.75;105105;1254;60746;-61
2023/07/11 00:16:13;;;;;;;3.40;1.70;;;;;;;15.26;100.00;99568.10;105572;1254;59669;-62
2023/07/11 00:18:41;;;;;;;2.50;1.60;;;;;;;15.25;100.00;99565.15;105326;1254;73132;-60
2023/07/11 00:21:09;;;;;;;4.40;1.90;;;;;;;15.24;100.00;99566.86;105252;1254;67105;-63
2023/07/11 00:23:36;;;;;;;3.30;1.90;;;;;;;15.21;100.00;99565.75;105311;1257;73207;-61
2023/07/11 00:26:04;;;;;;;4.50;2.40;;;;;;;15.19;100.00;99564.65;105274;1258;59663;-63
2023/07/11 00:28:32;;;;;;;5.00;2.10;;;;;;;15.18;100.00;99562.36;104964;1258;59955;-60
2023/07/11 00:31:00;;;;;;;3.10;2.20;;;;;;;15.18;100.00;99559.33;105472;1254;73549;-61
2023/07/11 00:33:29;;;;;;;4.30;2.10;;;;;;;15.18;100.00;99562.95;105354;1254;66942;-60
2023/07/11 00:35:57;;;;;;;4.50;1.80;;;;;;;15.19;100.00;99572.05;105619;1254;72662;-62
2023/07/11 00:38:25;;;;;;;3.40;2.20;;;;;;;15.19;100.00;99576.16;105352;1257;61803;-61
2023/07/11 00:40:53;;;;;;;5.90;2.50;;;;;;;15.19;100.00;99575.55;105325;1257;59532;-63
2023/07/11 00:43:21;;;;;;;4.50;2.80;;;;;;;15.17;100.00;99574.49;105088;1256;71205;-60
2023/07/11 00:46:09;;;;;;;6.80;2.40;;;;;;;15.16;100.00;99577.62;105374;1261;67230;-63
2023/07/11 00:48:39;;;;;;;5.40;2.20;;;;;;;15.15;100.00;99572.86;105447;1254;72683;-60
2023/07/11 00:51:07;;;;;;;4.00;2.20;;;;;;;15.16;100.00;99569.10;105337;1253;62297;-61
2023/07/11 00:53:36;;;;;;;5.20;2.50;;;;;;;15.19;100.00;99567.60;105447;1254;59512;-61
2023/07/11 00:56:05;;;;;;;3.60;1.90;;;;;;;15.22;100.00;99578.16;105173;1254;73526;-62
2023/07/11 00:58:33;;;;;;;4.20;2.20;;;;;;;15.25;100.00;99585.42;105228;1259;65865;-63
2023/07/11 01:01:01;;;;;;;5.60;2.20;;;;;;;15.25;100.00;99585.37;105205;1257;71475;-61
2023/07/11 01:03:29;;;;;;;3.30;2.30;;;;;;;15.24;100.00;99580.31;105658;1257;60608;-61
2023/07/11 01:05:57;;;;;;;4.80;2.00;;;;;;;15.25;100.00;99581.58;105697;1254;59689;-64
2023/07/11 01:08:25;;;;;;;4.20;2.10;;;;;;;15.27;100.00;99584.61;105579;1254;73315;-64
2023/07/11 01:10:53;;;;;;;3.50;2.00;;;;;;;15.28;100.00;99590.27;105424;1254;67079;-61
2023/07/11 01:13:20;;;;;;;4.20;2.10;;;;;;;15.27;100.00;99587.92;105509;1257;71410;-61
2023/07/11 01:15:49;;;;;;;6.20;2.30;;;;;;;15.22;100.00;99589.23;105493;1256;61745;-64
2023/07/11 01:18:17;;;;;;;4.00;1.90;;;;;;;15.22;100.00;99594.19;105390;1254;60463;-64
2023/07/11 01:20:45;;;;;;;3.50;1.90;;;;;;;15.23;100.00;99594.48;105471;1259;73900;-62
2023/07/11 01:23:14;;;;;;;5.30;2.30;;;;;;;15.22;100.00;99593.92;105709;1254;66922;-62
2023/07/11 01:25:42;;;;;;;4.10;2.20;;;;;;;15.23;100.00;99590.23;105492;1253;72709;-62
2023/07/11 01:28:12;;;;;;;3.90;2.40;;;;;;;15.25;100.00;99593.50;105733;1253;60531;-65
2023/07/11 01:30:40;;;;;;;4.20;2.40;;;;;;;15.24;100.00;99598.80;105345;1257;60515;-62
2023/07/11 01:33:08;;;;;;;5.00;2.30;;;;;;;15.25;100.00;99600.12;105494;1257;73899;-62
2023/07/11 01:35:36;;;;;;;3.50;2.00;;;;;;;15.25;100.00;99601.86;105566;1256;66956;-62
2023/07/11 01:38:05;;;;;;;3.70;2.10;;;;;;;15.26;100.00;99598.41;105883;1256;72788;-65
2023/07/11 01:40:32;;;;;;;4.70;2.20;;;;;;;15.27;100.00;99597.13;105242;1254;62290;-62
2023/07/11 01:43:00;;;;;;;7.70;2.30;;;;;;;15.30;100.00;99598.02;105287;1254;60503;-64
2023/07/11 01:45:28;;;;;;;3.10;1.90;;;;;;;15.34;100.00;99600.00;105538;1254;74315;-62
2023/07/11 01:47:56;;;;;;;6.80;2.30;;;;;;;15.37;100.00;99601.48;105655;1252;66334;-66
2023/07/11 01:50:23;;;;;;;5.30;2.40;;;;;;;15.39;100.00;99602.73;105450;1256;71436;-62
2023/07/11 01:52:51;;;;;;;3.80;2.20;;;;;;;15.42;100.00;99603.52;105489;1257;60530;-63
2023/07/11 01:55:19;;;;;;;4.90;2.20;;;;;;;15.45;100.00;99605.86;105496;1254;60502;-63
2023/07/11 01:57:47;;;;;;;5.00;2.50;;;;;;;15.49;100.00;99610.92;105908;1253;74082;-63
2023/07/11 02:00:15;;;;;;;4.50;2.50;;;;;;;15.51;100.00;99613.39;105634;1259;67052;-65
2023/07/11 02:02:51;;;;;;;4.40;2.30;;;;;;;15.52;100.00;99610.94;105864;1253;71550;-64
2023/07/11 02:05:20;;;;;;;5.50;2.30;;;;;;;15.54;100.00;99612.08;105362;1254;60492;-64
2023/07/11 02:07:48;;;;;;;6.10;2.30;;;;;;;15.56;100.00;99607.50;105440;1254;60437;-63
2023/07/11 02:10:16;;;;;;;7.00;3.10;;;;;;;15.58;100.00;99608.91;105065;1252;74521;-66
2023/07/11 02:12:44;;;;;;;3.70;2.30;;;;;;;15.63;100.00;99606.23;105366;1253;67050;-62
2023/07/11 02:15:12;;;;;;;7.80;2.40;;;;;;;15.67;100.00;99610.44;105372;1253;72818;-62
2023/07/11 02:17:40;;;;;;;4.00;2.20;;;;;;;15.72;100.00;99611.80;105178;1253;60590;-61
2023/07/11 02:20:09;;;;;;;4.60;2.40;;;;;;;15.77;100.00;99614.52;105828;1255;60565;-64
2023/07/11 02:22:39;;;;;;;5.60;2.60;;;;;;;15.83;100.00;99614.17;105518;1254;72671;-62
2023/07/11 02:25:07;;;;;;;5.20;2.40;;;;;;;15.91;100.00;99618.79;105439;1256;65768;-62
2023/07/11 02:27:35;;;;;;;5.60;2.20;;;;;;;16.02;100.00;99617.02;105381;1256;71448;-62
2023/07/11 02:30:04;;;;;;;5.00;2.20;;;;;;;16.24;100.00;99614.69;105352;1256;60902;-65
2023/07/11 02:32:31;;;;;;;2.90;2.10;;;;;;;16.78;100.00;99618.49;105754;1254;60757;-62
2023/07/11 02:34:59;;;;;;;3.40;2.30;;;;;;;17.57;100.00;99624.07;105646;1254;73807;-61
2023/07/11 02:37:27;;;;;;;4.30;2.50;;;;;;;18.40;100.00;99626.75;105202;1255;65745;-62
2023/07/11 02:39:55;;;;;;;6.60;2.70;;;;;;;19.17;100.00;99624.85;105668;1253;72796;-65
2023/07/11 02:42:23;;;;;;;25.60;9.60;;;;;;;19.92;100.00;99619.36;105366;1254;60409;-61
2023/07/11 02:44:51;;;;;;;8.30;5.90;;;;;;;20.50;100.00;99610.23;105128;1253;60434;-61
2023/07/11 02:47:18;;;;;;;382.00;161.90;;;;;;;20.83;100.00;99607.80;105480;1256;73806;-61
2023/07/11 02:49:46;;;;;;;289.70;105.00;;;;;;;21.15;100.00;99601.72;105444;1254;67425;-62
2023/07/11 02:52:14;;;;;;;449.20;226.00;;;;;;;21.46;100.00;99594.23;105339;1255;71558;-62
2023/07/11 02:54:42;;;;;;;362.00;201.50;;;;;;;21.77;100.00;99579.36;105481;1256;60479;-61
2023/07/11 02:57:10;;;;;;;555.70;314.40;;;;;;;21.95;100.00;99569.85;105445;1253;61010;-62
2023/07/11 02:59:37;;;;;;;771.50;435.50;;;;;;;21.76;100.00;99559.52;105925;1253;72750;-63
2023/07/11 03:02:05;;;;;;;447.40;233.70;;;;;;;21.30;100.00;99559.48;105169;1256;67560;-60
2023/07/11 03:04:33;;;;;;;417.40;207.90;;;;;;;20.74;100.00;99572.05;105278;1257;71428;-59
2023/07/11 03:07:01;;;;;;;237.50;108.50;;;;;;;20.07;100.00;99581.89;105463;1253;60854;-59
2023/07/11 03:09:32;;;;;;;328.10;173.50;;;;;;;19.45;100.00;99589.55;105263;1253;60499;-70
2023/07/11 03:11:59;;;;;;;17.80;9.90;;;;;;;18.95;100.00;99595.77;105333;1251;74174;-59
2023/07/11 03:14:27;;;;;;;44.40;18.40;;;;;;;18.55;100.00;99599.88;109326;1251;65940;-60
2023/07/11 03:16:55;;;;;;;7.00;5.90;;;;;;;18.23;100.00;99594.25;109253;1251;72796;-59
2023/07/11 03:19:22;;;;;;;12.20;5.60;;;;;;;18.00;100.00;99596.88;109322;1252;61759;-59
2023/07/11 03:21:50;;;;;;;46.00;17.50;;;;;;;17.83;100.00;99598.05;109248;1251;58869;-60
2023/07/11 03:24:18;;;;;;;38.70;11.10;;;;;;;17.69;100.00;99601.25;109313;1251;72579;-61
2023/07/11 03:26:48;;;;;;;6.50;3.00;;;;;;;17.55;100.00;99607.61;109330;1252;66977;-60
2023/07/11 03:29:16;;;;;;;4.50;2.00;;;;;;;17.42;100.00;99615.45;109143;1253;71461;-72
2023/07/11 03:31:44;;;;;;;6.00;2.40;;;;;;;17.28;100.00;99629.10;109250;1252;60495;-73
2023/07/11 03:34:11;;;;;;;5.10;2.50;;;;;;;17.13;100.00;99638.77;109156;1253;58840;-59
2023/07/11 03:36:40;;;;;;;3.80;2.00;;;;;;;17.04;100.00;99631.81;109175;1251;73918;-59
2023/07/11 03:39:08;;;;;;;4.10;2.20;;;;;;;16.97;100.00;99633.34;109325;1253;65818;-71
2023/07/11 03:41:36;;;;;;;4.70;1.90;;;;;;;16.90;100.00;99635.13;109275;1251;71428;-60
2023/07/11 03:44:03;;;;;;;3.80;1.40;;;;;;;16.80;100.00;99628.02;109219;1252;60102;-68
2023/07/11 03:46:31;;;;;;;2.60;1.10;;;;;;;16.71;100.00;99622.02;109309;1252;60085;-60
2023/07/11 03:49:00;;;;;;;4.10;1.30;;;;;;;16.61;100.00;99614.21;109254;1252;73134;-59
2023/07/11 03:51:27;;;;;;;4.80;1.50;;;;;;;16.52;100.00;99614.27;109142;1253;66957;-65
2023/07/11 03:53:55;;;;;;;2.90;1.10;;;;;;;16.45;100.00;99606.31;109165;1253;71420;-74
2023/07/11 03:56:22;;;;;;;2.40;1.00;;;;;;;16.37;100.00;99612.27;109283;1252;61741;-60
2023/07/11 03:58:50;;;;;;;2.50;0.90;;;;;;;16.31;100.00;99619.85;109298;1251;58750;-61
2023/07/11 04:01:18;;;;;;;1.80;0.90;;;;;;;16.23;100.00;99627.34;109375;1251;71960;-60
2023/07/11 04:03:45;;;;;;;2.90;0.80;;;;;;;16.17;100.00;99625.70;109261;1252;67508;-74
2023/07/11 04:06:13;;;;;;;3.60;1.10;;;;;;;16.11;100.00;99637.77;109283;1253;72729;-61
2023/07/11 04:08:41;;;;;;;2.30;1.00;;;;;;;16.04;100.00;99646.48;109351;1252;58792;-64
2023/07/11 04:11:09;;;;;;;4.00;1.50;;;;;;;15.98;100.00;99645.21;109303;1252;58827;-60
2023/07/11 04:13:36;;;;;;;4.60;1.40;;;;;;;15.91;100.00;99645.39;109170;1252;73803;-72
2023/07/11 04:16:04;;;;;;;3.30;1.60;;;;;;;15.85;100.00;99643.74;109289;1253;67545;-60
2023/07/11 04:18:32;;;;;;;3.70;1.70;;;;;;;15.82;100.00;99644.68;109308;1252;72755;-59
2023/07/11 04:21:00;;;;;;;3.40;1.80;;;;;;;15.80;100.00;99642.61;109320;1252;61705;-60
2023/07/11 04:23:28;;;;;;;4.60;2.10;;;;;;;15.80;100.00;99648.45;109293;1252;60472;-61
2023/07/11 04:25:55;;;;;;;5.00;2.20;;;;;;;15.81;100.00;99651.77;109244;1252;73882;-72
2023/07/11 04:28:23;;;;;;;4.00;2.60;;;;;;;15.83;100.00;99656.74;109333;1251;66972;-60
2023/07/11 04:30:50;;;;;;;6.50;2.30;;;;;;;15.86;100.00;99657.79;109310;1251;72382;-62
2023/07/11 04:33:18;;;;;;;4.00;2.30;;;;;;;15.88;100.00;99653.00;109321;1252;61677;-61
2023/07/11 04:35:46;;;;;;;4.30;1.80;;;;;;;15.91;100.00;99657.80;109266;1251;60485;-69
2023/07/11 04:38:13;;;;;;;4.60;2.30;;;;;;;15.93;100.00;99657.69;109235;1252;72819;-72
2023/07/11 04:40:41;;;;;;;2.90;1.60;;;;;;;15.95;100.00;99659.48;109303;1251;67441;-62
2023/07/11 04:43:08;;;;;;;5.70;2.00;;;;;;;15.96;100.00;99659.54;109303;1251;71386;-61
2023/07/11 04:45:36;;;;;;;4.40;1.60;;;;;;;15.94;100.00;99655.60;109326;1251;61685;-60
2023/07/11 04:48:04;;;;;;;4.70;1.40;;;;;;;15.92;100.00;99659.20;109249;1251;58805;-60
2023/07/11 04:50:32;;;;;;;3.00;1.60;;;;;;;15.90;100.00;99657.05;109302;1252;73905;-60
2023/07/11 04:52:59;;;;;;;4.00;1.50;;;;;;;15.91;100.00;99655.75;109211;1252;67032;-60
2023/07/11 04:55:27;;;;;;;3.00;1.40;;;;;;;15.93;100.00;99654.20;109259;1253;71671;-60
2023/07/11 04:57:54;;;;;;;4.20;2.00;;;;;;;15.95;100.00;99646.27;109231;1252;60465;-70
2023/07/11 05:00:22;;;;;;;2.50;1.50;;;;;;;15.96;100.00;99636.15;109163;1252;60113;-61
2023/07/11 05:02:50;;;;;;;5.20;1.70;;;;;;;16.00;100.00;99634.06;109373;1251;72690;-60
2023/07/11 05:05:17;;;;;;;4.20;1.80;;;;;;;16.02;100.00;99631.77;109315;1251;66843;-59
2023/07/11 05:07:45;;;;;;;5.70;1.70;;;;;;;16.08;100.00;99638.14;109270;1252;72696;-66
2023/07/11 05:10:12;;;;;;;3.00;1.50;;;;;;;16.13;100.00;99650.50;109223;1252;60780;-69
2023/07/11 05:12:40;;;;;;;5.20;1.20;;;;;;;16.14;100.00;99663.73;109283;1252;58810;-59
2023/07/11 05:15:11;;;;;;;5.30;1.40;;;;;;;16.16;100.00;99669.34;109188;1253;73893;-60
2023/07/11 05:17:39;;;;;;;3.90;1.40;;;;;;;16.15;100.00;99663.11;109195;1252;65782;-70
2023/07/11 05:20:07;;;;;;;2.70;1.20;;;;;;;16.15;100.00;99666.11;109233;1253;73087;-59
2023/07/11 05:22:35;;;;;;;1.90;1.10;;;;;;;16.13;100.00;99665.73;109140;1253;61746;-61
2023/07/11 05:25:02;;;;;;;2.00;1.10;;;;;;;16.10;100.00;99671.67;109267;1252;60101;-58
2023/07/11 05:27:30;;;;;;;2.10;1.10;;;;;;;16.06;100.00;99677.92;109313;1252;73984;-67
2023/07/11 05:29:58;;;;;;;3.40;1.20;;;;;;;16.09;100.00;99685.13;109290;1252;67529;-59
2023/07/11 05:32:26;;;;;;;2.20;1.10;;;;;;;16.09;100.00;99693.81;109148;1253;72723;-69
2023/07/11 05:34:53;;;;;;;2.20;1.40;;;;;;;16.12;100.00;99701.43;109190;1251;62240;-59
2023/07/11 05:37:21;;;;;;;2.80;1.30;;;;;;;16.15;100.00;99711.48;109300;1251;58717;-59
2023/07/11 05:39:49;;;;;;;3.10;1.70;;;;;;;16.19;100.00;99720.71;109289;1251;72628;-59
2023/07/11 05:42:16;;;;;;;3.70;1.60;;;;;;;16.24;100.00;99733.76;109355;1251;67533;-59
2023/07/11 05:44:44;;;;;;;4.70;2.00;;;;;;;16.31;100.00;99738.20;109294;1251;73303;-59
2023/07/11 05:47:12;;;;;;;4.00;1.90;;;;;;;16.41;100.00;99738.81;109267;1252;61785;-59
2023/07/11 05:49:39;;;;;;;3.20;1.90;;;;;;;16.51;100.00;99743.17;109275;1251;60326;-68
2023/07/11 05:52:07;;;;;;;3.70;2.10;;;;;;;16.61;100.00;99741.58;109319;1251;73922;-60
2023/07/11 05:54:34;;;;;;;3.00;1.70;;;;;;;16.72;100.00;99747.67;109278;1251;66835;-68
2023/07/11 05:57:02;;;;;;;3.20;2.20;;;;;;;16.80;100.00;99749.52;109256;1251;72916;-58
2023/07/11 05:59:30;;;;;;;4.10;2.30;;;;;;;16.90;100.00;99750.27;109319;1251;61799;-65
2023/07/11 06:01:58;;;;;;;4.20;2.50;;;;;;;16.98;100.00;99756.48;109300;1252;59037;-59
2023/07/11 06:04:25;;;;;;;4.00;2.40;;;;;;;17.07;100.00;99757.66;109334;1251;72360;-59
2023/07/11 06:06:53;;;;;;;3.90;2.50;;;;;;;17.11;100.00;99764.02;109318;1251;67440;-68
2023/07/11 06:09:20;;;;;;;7.30;2.50;;;;;;;17.22;100.00;99755.98;109342;1252;72721;-59
2023/07/11 06:11:48;;;;;;;5.50;3.30;;;;;;;17.43;100.00;99757.16;109283;1251;61764;-60
2023/07/11 06:14:16;;;;;;;4.80;2.80;;;;;;;17.63;100.00;99759.46;109306;1251;60172;-59
2023/07/11 06:16:45;;;;;;;4.20;2.50;;;;;;;17.79;100.00;99758.20;109276;1251;72636;-61
2023/07/11 06:19:17;;;;;;;6.20;2.70;;;;;;;17.87;100.00;99758.90;109319;1251;66943;-59
2023/07/11 06:21:45;;;;;;;4.90;2.70;;;;;;;17.94;100.00;99757.45;109250;1251;73259;-59
2023/07/11 06:24:12;;;;;;;3.90;2.80;;;;;;;18.06;100.00;99756.80;109302;1251;61716;-58
2023/07/11 06:26:40;;;;;;;5.10;2.90;;;;;;;18.17;100.00;99750.61;109319;1251;60660;-59
2023/07/11 06:29:08;;;;;;;4.30;3.40;;;;;;;18.32;100.00;99743.31;109371;1251;71927;-61
2023/07/11 06:31:36;;;;;;;5.50;3.30;;;;;;;18.50;100.00;99743.61;109264;1251;67464;-64
2023/07/11 06:34:04;;;;;;;4.50;3.20;;;;;;;18.66;100.00;99746.55;109339;1251;71474;-59
2023/07/11 06:36:31;;;;;;;24.00;8.30;;;;;;;18.82;100.00;99747.83;109243;1251;60443;-61
2023/07/11 06:38:59;;;;;;;43.10;15.60;;;;;;;18.93;100.00;99747.36;109345;1251;58875;-62
2023/07/11 06:41:28;;;;;;;5.30;3.40;;;;;;;18.99;100.00;99746.45;109334;1251;72762;-64
2023/07/11 06:43:56;;;;;;;6.00;4.00;;;;;;;19.03;100.00;99745.21;109306;1253;66959;-60
2023/07/11 06:46:24;;;;;;;6.50;3.20;;;;;;;19.04;100.00;99747.40;109309;1252;72774;-71
2023/07/11 06:48:54;;;;;;;4.70;2.70;;;;;;;19.05;100.00;99744.83;109268;1251;62271;-60
2023/07/11 06:51:22;;;;;;;4.90;3.30;;;;;;;19.09;100.00;99741.73;109318;1251;58751;-59
2023/07/11 06:53:49;;;;;;;4.70;3.30;;;;;;;19.12;100.00;99736.63;109290;1251;73930;-60
2023/07/11 06:56:17;;;;;;;4.10;2.80;;;;;;;19.21;100.00;99730.31;109363;1251;67459;-59
2023/07/11 06:58:44;;;;;;;3.90;2.90;;;;;;;19.28;100.00;99729.64;109234;1252;73161;-61
2023/07/11 07:01:12;;;;;;;29.30;9.70;;;;;;;19.35;100.00;99722.27;109300;1252;60302;-60
2023/07/11 07:04:00;;;;;;;4.00;2.90;;;;;;;19.42;100.00;99719.16;109287;1252;59641;-60
2023/07/11 07:06:31;;;;;;;35.50;13.80;;;;;;;19.47;100.00;99717.49;109294;1251;74419;-61
2023/07/11 07:09:00;;;;;;;53.00;21.20;;;;;;;19.50;100.00;99713.71;109291;1252;65617;-59
2023/07/11 07:11:28;;;;;;;5.10;3.20;;;;;;;19.55;100.00;99712.80;109254;1251;72717;-59
2023/07/11 07:13:56;;;;;;;14.10;7.10;;;;;;;19.51;100.00;99708.21;109283;1253;60917;-59
2023/07/11 07:16:33;;;;;;;34.00;14.70;;;;;;;19.40;100.00;99703.55;109265;1251;59279;-64
2023/07/11 07:19:02;;;;;;;34.50;12.90;;;;;;;19.31;100.00;99696.45;109260;1251;73876;-59
2023/07/11 07:21:30;;;;;;;206.00;87.80;;;;;;;19.23;100.00;99696.19;109298;1252;67647;-59
2023/07/11 07:23:58;;;;;;;58.00;23.60;;;;;;;19.15;100.00;99693.02;109281;1251;72674;-61
2023/07/11 07:26:25;;;;;;;11.30;4.20;;;;;;;19.19;100.00;99695.16;109221;1251;59996;-71
2023/07/11 07:28:53;;;;;;;5.20;3.70;;;;;;;19.32;100.00;99694.04;109263;1253;58812;-59
2023/07/11 07:31:22;;;;;;;18.60;11.40;;;;;;;19.46;100.00;99698.30;109159;1251;72626;-62
2023/07/11 07:33:50;;;;;;;38.90;18.70;;;;;;;19.62;100.00;99696.09;109148;1253;66875;-59
2023/07/11 07:36:17;;;;;;;49.50;13.30;;;;;;;19.76;100.00;99697.23;109258;1251;71604;-59
2023/07/11 07:38:45;;;;;;;179.60;80.10;;;;;;;19.88;100.00;99699.23;109183;1251;60517;-69
2023/07/11 07:41:13;;;;;;;292.10;119.70;;;;;;;19.97;100.00;99704.58;109229;1255;58564;-71
2023/07/11 07:43:42;;;;;;;22.20;9.50;;;;;;;20.12;100.00;99708.29;109264;1253;73899;-63
2023/07/11 07:46:15;;;;;;;38.80;13.90;;;;;;;20.31;100.00;99706.02;109340;1251;65638;-59
2023/07/11 07:48:45;;;;;;;325.00;149.30;;;;;;;20.48;100.00;99706.86;109276;1251;72113;-70
2023/07/11 07:51:17;;;;;;;382.20;133.40;;;;;;;20.72;100.00;99707.39;109121;1252;58866;-60
2023/07/11 07:53:45;;;;;;;171.50;70.10;;;;;;;21.00;100.00;99704.02;109254;1253;60523;-60
2023/07/11 07:56:16;;;;;;;259.80;104.90;;;;;;;21.29;100.00;99703.02;109283;1251;73912;-59
2023/07/11 07:58:44;;;;;;;657.10;336.40;;;;;;;21.60;100.00;99701.27;109222;1253;66878;-64
2023/07/11 08:01:12;;;;;;;762.30;387.20;;;;;;;21.91;100.00;99698.74;109254;1251;71446;-63
2023/07/11 08:03:40;;;;;;;532.40;273.20;;;;;;;22.22;100.00;99698.99;109267;1251;60147;-59
2023/07/11 08:06:11;;;;;;;560.20;284.50;;;;;;;22.54;100.00;99696.16;109239;1251;59980;-59
2023/07/11 08:08:47;;;;;;;940.20;462.20;;;;;;;22.96;100.00;99687.85;109219;1253;73969;-66
2023/07/11 08:11:15;;;;;;;916.50;517.00;;;;;;;23.52;100.00;99684.77;109346;1253;67420;-59
2023/07/11 08:13:43;;;;;;;875.00;563.80;;;;;;;24.13;100.00;99676.88;109249;1251;71449;-60
2023/07/11 08:16:14;;;;;;;901.90;574.60;;;;;;;24.59;100.00;99665.35;109317;1252;60548;-59
2023/07/11 08:18:58;;;;;;;909.70;600.20;;;;;;;24.79;100.00;99649.08;109163;1253;60034;-61
2023/07/11 08:21:26;;;;;;;994.90;699.10;;;;;;;24.81;100.00;99636.56;109297;1253;73946;-60
2023/07/11 08:23:53;;;;;;;889.30;567.00;;;;;;;24.81;100.00;99627.40;109261;1251;65796;-60
2023/07/11 08:26:22;;;;;;;685.00;499.40;;;;;;;24.85;100.00;99619.72;109180;1253;72704;-68
2023/07/11 08:28:50;;;;;;;702.00;493.00;;;;;;;24.92;100.00;99616.02;109347;1252;60084;-60
2023/07/11 08:31:18;;;;;;;714.10;561.60;;;;;;;25.04;100.00;99613.79;109333;1251;60120;-61
2023/07/11 08:33:46;;;;;;;618.40;443.20;;;;;;;25.30;100.00;99613.21;109360;1251;74305;-61
2023/07/11 08:36:13;;;;;;;520.00;420.40;;;;;;;25.69;100.00;99604.38;109312;1251;67144;-63
2023/07/11 08:38:44;;;;;;;492.60;392.90;;;;;;;26.22;100.00;99601.24;109192;1252;72052;-63
2023/07/11 08:41:17;;;;;;;557.00;410.20;;;;;;;26.72;100.00;99595.60;109274;1251;59371;-63
2023/07/11 08:43:45;;;;;;;442.40;356.40;;;;;;;27.32;100.00;99591.55;109352;1251;58836;-62
2023/07/11 08:46:14;;;;;;;350.10;267.70;;;;;;;28.04;100.00;99582.87;109171;1251;72602;-71
2023/07/11 08:48:44;;;;;;;191.60;171.60;;;;;;;28.78;100.00;99579.62;109094;1251;67082;-64
2023/07/11 08:51:25;;;;;;;152.10;136.70;;;;;;;29.39;100.00;99576.23;109207;1251;71577;-63
2023/07/11 08:54:00;;;;;;;80.30;73.50;;;;;;;29.62;100.00;99577.29;109253;1251;60014;-63
2023/07/11 08:56:36;;;;;;;59.60;54.40;;;;;;;29.88;100.00;99577.83;109204;1256;60678;-64
2023/07/11 08:59:32;;;;;;;32.10;29.80;;;;;;;30.27;100.00;99581.48;109306;1251;73955;-64
2023/07/11 09:02:15;;;;;;;10.90;10.10;;;;;;;30.54;100.00;99579.73;108970;1253;67539;-63
2023/07/11 09:04:47;;;;;;;3.00;2.60;;;;;;;30.60;100.00;99579.30;109236;1252;72736;-64
2023/07/11 09:07:34;;;;;;;2.90;1.60;;;;;;;30.85;100.00;99580.08;109243;1252;60140;-70
2023/07/11 09:10:02;;;;;;;2.40;1.30;;;;;;;30.98;100.00;99577.27;109284;1251;60003;-65
2023/07/11 09:12:39;;;;;;;2.10;1.40;;;;;;;30.74;99.37;99581.50;109328;1253;72588;-64
2023/07/11 09:15:17;;;;;;;2.00;1.30;;;;;;;30.40;99.48;99575.33;109250;1253;65759;-70
2023/07/11 09:17:54;;;;;;;2.30;1.30;;;;;;;30.54;100.00;99567.35;109060;1253;314672;-64
2023/07/11 09:20:40;;;;;;;2.70;1.40;;;;;;;30.79;100.00;99568.20;109246;1251;58837;-65
2023/07/11 09:23:38;;;;;;;2.70;1.20;;;;;;;31.18;97.38;99566.29;109251;1252;58800;-64
2023/07/11 09:26:16;;;;;;;2.50;1.40;;;;;;;31.52;93.95;99563.39;109222;1253;64964;-68
2023/07/11 09:28:44;;;;;;;2.30;1.30;;;;;;;31.91;88.07;99559.45;109060;1256;67106;-63
2023/07/11 09:31:16;;;;;;;2.90;1.40;;;;;;;32.08;81.09;99556.23;109295;1252;63818;-65
2023/07/11 09:33:55;;;;;;;1.90;1.30;;;;;;;32.08;83.77;99557.30;109020;1252;58368;-66
2023/07/11 09:36:26;;;;;;;3.30;1.40;;;;;;;32.22;84.86;99553.98;109257;1252;58089;-63
2023/07/11 09:38:57;;;;;;;3.40;1.30;;;;;;;32.59;79.92;99552.95;109033;1251;63737;-63
2023/07/11 09:41:33;;;;;;;1.90;1.20;;;;;;;33.01;72.75;99553.67;109197;1252;58684;-67
2023/07/11 09:44:16;;;;;;;2.40;1.20;;;;;;;33.41;60.48;99545.55;109146;1252;71980;-63
2023/07/11 09:46:44;;;;;;;3.30;1.50;;;;;;;33.51;60.03;99543.02;109296;1253;58706;-63
2023/07/11 09:49:18;;;;;;;3.30;1.20;;;;;;;33.65;57.02;99542.90;109276;1251;58102;-66
2023/07/11 09:51:58;;;;;;;3.40;1.40;;;;;;;33.66;52.50;99540.23;109273;1251;65418;-64
2023/07/11 09:54:28;;;;;;;2.70;1.40;;;;;;;33.49;52.79;99538.39;109314;1251;58201;-63
2023/07/11 09:56:57;;;;;;;2.20;1.30;;;;;;;33.45;53.89;99537.38;109329;1252;63847;-63
2023/07/11 09:59:25;;;;;;;2.40;1.20;;;;;;;33.56;53.05;99533.00;109110;1253;58706;-63
2023/07/11 10:01:56;;;;;;;3.10;1.00;;;;;;;33.77;54.67;99528.55;109210;1253;58373;-67
2023/07/11 10:04:25;;;;;;;1.70;1.00;;;;;;;34.08;50.89;99526.29;109217;1253;63711;-70
2023/07/11 10:07:00;;;;;;;3.60;1.60;;;;;;;34.07;45.73;99524.56;109265;1253;58686;-68
2023/07/11 10:09:29;;;;;;;2.60;1.50;;;;;;;33.64;45.31;99527.73;109049;1253;63838;-63
2023/07/11 10:11:58;;;;;;;3.80;1.50;;;;;;;32.98;49.34;99539.77;109009;1253;58202;-66
2023/07/11 10:14:34;;;;;;;2.10;1.30;;;;;;;32.21;58.88;99544.09;109246;1253;58117;-66
2023/07/11 10:17:12;;;;;;;4.50;1.80;;;;;;;31.60;68.19;99542.71;109072;1252;63720;-64
2023/07/11 10:19:39;;;;;;;3.60;1.40;;;;;;;31.28;67.99;99536.27;109087;1253;58485;-70
2023/07/11 10:22:14;;;;;;;2.60;1.20;;;;;;;30.86;67.80;99544.73;109254;1253;62514;-67
2023/07/11 10:24:42;;;;;;;2.40;1.30;;;;;;;30.32;68.19;99544.38;109195;1253;60075;-65
2023/07/11 10:27:12;;;;;;;1.90;1.10;;;;;;;29.86;75.03;99542.09;109420;1251;60136;-68
2023/07/11 10:29:46;;;;;;;4.60;1.20;;;;;;;29.48;81.63;99542.58;109041;1252;72636;-70
2023/07/11 10:32:25;;;;;;;4.10;1.40;;;;;;;29.10;89.00;99544.19;109349;1252;58739;-67
2023/07/11 10:34:56;;;;;;;1.90;1.40;;;;;;;28.73;94.93;99543.00;109018;1252;71619;-67
2023/07/11 10:37:27;;;;;;;2.40;1.30;;;;;;;28.50;99.12;99548.40;109011;1253;58860;-72
2023/07/11 10:40:19;;;;;;;3.30;1.30;;;;;;;28.19;100.00;99556.83;109271;1251;59217;-69
2023/07/11 10:43:14;;;;;;;3.00;1.70;;;;;;;27.67;100.00;99561.63;109152;1251;74378;-68
2023/07/11 10:45:43;;;;;;;3.20;1.70;;;;;;;26.87;100.00;99565.32;109224;1251;66084;-68
2023/07/11 10:48:32;;;;;;;3.30;2.90;;;;;;;26.25;100.00;99572.52;109058;1253;71392;-68
2023/07/11 10:51:17;;;;;;;3.10;2.80;;;;;;;25.67;100.00;99570.22;109252;1253;58863;-68
2023/07/11 10:53:54;;;;;;;8.90;8.20;;;;;;;25.18;100.00;99564.05;109082;1253;59263;-67
2023/07/11 10:56:24;;;;;;;14.80;13.80;;;;;;;24.81;100.00;99569.67;108977;1252;73941;-72
2023/07/11 10:58:56;;;;;;;30.10;28.20;;;;;;;24.53;100.00;99565.09;109001;1253;65966;-67
2023/07/11 11:02:01;;;;;;;60.70;55.80;;;;;;;24.33;100.00;99567.52;108993;1252;72719;-66
2023/07/11 11:04:48;;;;;;;74.00;68.30;;;;;;;24.27;100.00;99564.04;109333;1252;59312;-67
2023/07/11 11:07:38;;;;;;;97.70;90.00;;;;;;;24.40;100.00;99567.52;109282;1252;60345;-71
2023/07/11 11:10:38;;;;;;;111.90;102.30;;;;;;;24.68;100.00;99561.79;109029;1253;73948;-65
2023/07/11 11:13:10;;;;;;;129.80;118.80;;;;;;;25.08;100.00;99558.40;109026;1253;67312;-65
2023/07/11 11:15:50;;;;;;;99.20;90.20;;;;;;;25.46;100.00;99557.14;109089;1253;72674;-65
2023/07/11 11:18:18;;;;;;;147.30;134.70;;;;;;;25.88;100.00;99555.45;109004;1253;59260;-72
2023/07/11 11:21:09;;;;;;;103.60;95.00;;;;;;;26.36;100.00;99558.02;109208;1253;59994;-69
2023/07/11 11:24:17;;;;;;;83.00;76.00;;;;;;;27.12;100.00;99555.85;109076;1253;73834;-69
2023/07/11 11:27:03;;;;;;;55.90;51.40;;;;;;;27.91;100.00;99547.48;109245;1253;66180;-66